Airport View

Enter AWOS ICAO identifier for current METAR.

ex. KFNL

KJNX 251055Z AUTO 00000KT 10SM SCT075 SCT080 18/18 A2999 RMK AO2

25 Oct 2020 10:55

Frequency: 120.225

Phone: 919-934-3851

Other Area AWOS: KHRJ - KGWW - KGSB - KRDU

TAF KGSB 250400Z 2504/2610 17004KT 9999 SCT020 BKN030 QNH2996INS BECMG 2507/2508 12002KT 9999 VCSH SCT007 BKN010 QNH2996INS BECMG 2509/2510 05005KT 8000 -RA BKN005 QNH2996INS BECMG 2519/2520 04010G15KT 9999 NSW BKN005 QNH2995INS TX20/2520Z TN17/2604Z LAST NO AMDS AFT 2504 NEXT 2512